Station: Lameroo Aws

  Atmospheric Gas Attenuation - ITU Rec 676-11   --------------- db/100km ---------------
Date Time Temp RH % AH g/m3 Dew Point Wind Direction Speed kph Gust kph Barometer mB Rainfall Since 9am 24GHz 47GHz 76GHz 122GHz 134GHz 241GHz
17 02:10 3.6 92 5.7 2.5 13 13 1013.1 0 13.8 24.0 32.7 85.3 70.7 240.2
17 02:00 3.5 94 5.79 2.6 13 13 1022.7 0 14.0 24.5 33.5 87.3 72.7 246.8
17 01:50 3.6 94 5.82 2.7 11 11 1013.1 0 14.0 24.2 33.2 86.6 72.4 245.9
17 01:40 3.4 94 5.75 2.5 11 11 1013.1 0 13.9 24.1 33.0 86.1 71.6 243.2
17 01:30 3.1 94 5.63 2.2 13 15 1022.7 0 13.7 24.4 33.0 86.0 70.9 240.3
17 01:20 3.3 92 5.59 2.1 11 11 1013.1 0 13.6 23.9 32.3 84.4 69.5 235.9
17 01:10 3.6 92 5.7 2.4 11 11 1013.1 0 13.8 24.0 32.7 85.3 70.7 240.2
17 01:00 4 91 5.79 2.7 11 13 1022.7 0 14.0 24.4 33.3 86.8 72.2 245.2
17 00:50 4.5 92 6.05 3.3 11 13 1013.1 0 14.5 24.3 33.7 88.2 74.6 254.0
17 00:40 4.6 91 6.03 3.2 13 13 1013.1 0 14.5 24.3 33.6 87.8 74.3 252.7
17 00:30 4.7 92 6.13 3.5 13 15 1023 0 14.7 24.8 34.4 89.8 76.2 259.3
17 00:20 4.7 92 6.13 3.5 13 15 1013.1 0 14.7 24.4 34.0 88.8 75.5 257.1
17 00:10 4.3 90 5.84 2.8 13 13 1013.1 0 14.1 24.0 33.0 86.1 72.0 244.6
17 00:00 5 92 6.26 3.8 13 15 1023.2 0 14.9 24.9 34.8 90.9 77.7 264.6
16 23:50 4.8 91 6.11 3.4 13 13 1013.1 0 14.6 24.4 33.9 88.5 75.2 255.8
16 23:40 4.7 91 6.07 3.3 13 13 1013.1 0 14.5 24.3 33.7 88.2 74.7 254.3
16 23:30 5 91 6.19 3.7 13 15 1023.3 0 14.8 24.8 34.5 90.1 76.7 261.2
16 23:20 4.9 91 6.15 3.5 13 13 1013.1 0 14.7 24.4 34.0 88.8 75.6 257.4
16 23:10 4.7 91 6.07 3.3 13 15 1013.1 0 14.5 24.3 33.7 88.2 74.7 254.3
16 23:00 4.9 90 6.08 3.4 13 15 1023.4 0 14.6 24.7 34.1 89.0 75.3 256.3
16 22:50 5.1 91 6.23 3.7 11 11 1013.1 0 14.9 24.5 34.2 89.5 76.5 260.6
16 22:40 5.1 93 6.37 4 13 13 1013.1 0 15.2 24.7 34.8 91.0 78.4 267.2
16 22:30 4.5 91 5.99 3.2 13 15 1023.4 0 14.4 24.6 33.9 88.5 74.5 253.3
16 22:20 5.2 91 6.27 3.8 13 13 1013.1 0 15.0 24.5 34.3 89.8 76.9 262.1
16 22:10 5.7 91 6.48 4.3 11 13 1013.1 0 15.4 24.7 35.0 91.5 79.3 270.4
16 22:00 5.5 90 6.33 4 13 13 1023.7 0 15.1 24.9 34.9 91.1 78.2 266.3
16 21:50 5.8 89 6.38 4.1 11 11 1013.1 0 15.2 24.5 34.5 90.3 77.8 265.3
16 21:40 6.3 88 6.52 4.4 11 11 1013.1 0 15.5 24.6 34.9 91.3 79.2 270.2
16 21:30 6.6 87 6.57 4.6 9 11 1023.8 0 15.5 25.0 35.4 92.5 80.3 274.0
16 21:20 7 86 6.67 4.9 9 9 1013.1 0 15.7 24.7 35.2 92.1 80.5 274.9
16 21:10 8.5 88 7.52 6.6 7 7 1013.1 0 17.5 25.7 38.0 99.6 90.4 309.6
16 21:00 8.2 90 7.54 6.7 6 6 1023.9 0 17.6 26.2 38.7 101.3 91.8 314.6
16 20:50 7.1 86 6.71 5 6 6 1013.1 0 15.8 24.7 35.3 92.4 80.9 276.4
16 20:40 8.4 88 7.47 6.5 9 9 1013.1 0 17.4 25.6 37.8 99.1 89.8 307.6
16 20:30 8.4 88 7.47 6.5 9 9 1023.9 0 17.4 26.0 38.3 100.3 90.6 310.4
16 20:20 8.3 87 7.34 6.2 9 9 1013.1 0 17.1 25.4 37.3 97.8 88.1 301.8
16 20:10 8.6 87 7.48 6.5 7 7 1013.1 0 17.4 25.6 37.8 99.0 89.7 307.3
16 20:00 8.5 85 7.26 6.1 6 7 1023.8 0 17.0 25.6 37.4 97.8 87.6 299.9
16 19:50 9 84 7.41 6.4 6 6 1013.1 0 17.3 25.3 37.3 97.7 88.3 302.5
16 19:40 9.2 83 7.41 6.4 6 6 1013.1 0 17.2 25.3 37.2 97.5 88.1 301.7
16 19:30 9.3 81 7.28 6.2 6 7 1023.6 0 17.0 25.4 37.1 97.0 87.0 297.8
16 19:20 9.4 81 7.33 6.3 7 7 1013.1 0 17.1 25.1 36.8 96.4 86.8 297.2
16 19:10 9.4 80 7.24 6.1 6 6 1013.1 0 16.9 24.9 36.4 95.4 85.6 293.0
16 19:00 9.6 78 7.15 6 6 7 1023.4 0 16.7 25.1 36.4 95.2 84.9 290.5
16 18:50 10.8 75 7.41 6.5 6 6 1013.1 0 17.2 24.8 36.5 95.5 86.3 295.6
16 18:40 11.5 73 7.54 6.8 6 6 1013.1 0 17.4 24.8 36.7 96.1 87.2 298.9
16 18:30 11.4 74 7.6 6.9 4 6 1023.1 0 17.6 25.3 37.4 97.8 88.8 304.6
16 18:20 11.2 75 7.6 6.9 6 6 1013.1 0 17.6 25.0 37.0 97.1 88.3 302.8
16 18:10 11.1 75 7.56 6.8 6 6 1013.1 0 17.5 25.0 36.9 96.8 87.9 301.4
16 18:00 11.2 76 7.7 7.1 6 6 1022.9 0 17.8 25.5 37.9 99.1 90.4 310.0
16 17:50 11.4 77 7.9 7.5 6 6 1013.1 0 18.2 25.4 38.1 100.0 92.1 316.0
16 17:40 11.3 78 7.96 7.6 7 7 1013.1 0 18.3 25.6 38.4 100.8 93.0 319.2
16 17:30 11.6 77 8 7.7 7 9 1022.9 0 18.4 25.9 38.9 101.9 93.9 322.4
16 17:20 12 76 8.1 7.9 7 7 1013.1 0 18.6 25.6 38.7 101.4 94.0 322.8
16 17:10 12.7 74 8.24 8.2 6 7 1013.1 0 18.9 25.6 38.9 102.0 95.0 326.4
16 17:00 13.3 74 8.55 8.8 6 7 1022.8 0 19.5 26.3 40.3 105.6 99.2 341.0
16 16:50 13.7 72 8.53 8.7 6 6 1013.1 0 19.4 25.8 39.6 103.8 97.6 335.6
16 16:40 14.3 70 8.6 8.9 7 7 1013.1 0 19.6 25.7 39.5 103.8 97.8 336.3
16 16:30 14.9 69 8.79 9.3 7 9 1022.8 0 19.9 26.2 40.4 106.0 100.3 345.1
16 16:20 15.2 66 8.57 8.9 9 9 1013.1 0 19.5 25.4 39.0 102.3 96.2 331.1
16 16:10 15.6 62 8.25 8.5 7 9 1013.1 0 18.8 24.8 37.5 98.4 91.7 315.1
16 16:00 15.8 59 7.94 7.8 7 9 1022.7 0 18.1 24.6 36.7 96.0 88.2 303.0
16 15:50 16.1 56 7.68 7.5 7 7 1013.1 0 17.5 23.8 35.1 92.1 83.9 288.2
16 15:40 16.1 56 7.68 7.5 6 7 1013.1 0 17.5 23.8 35.1 92.1 83.9 288.2
16 15:30 16 56 7.63 7.2 7 9 1022.7 0 17.4 24.1 35.4 92.6 84.1 288.7
16 15:20 16.1 54 7.4 7 9 11 1013.1 0 16.9 23.4 34.1 89.3 80.5 276.1
16 15:10 16.1 54 7.4 7 6 6 1013.1 0 16.9 23.4 34.1 89.3 80.5 276.1
16 15:00 16 56 7.63 7.2 6 9 1022.8 0 17.4 24.1 35.4 92.6 84.1 288.7
16 14:50 16.1 56 7.68 7.5 9 9 1013.1 0 17.5 23.8 35.1 92.1 83.9 288.2
16 14:40 16.2 53 7.31 6.6 6 6 1013.1 0 16.7 23.2 33.7 88.3 79.3 271.9
16 14:30 16.8 52 7.43 6.9 0 2 1022.9 0 17.0 23.6 34.3 89.7 80.8 277.2
16 14:20 16.2 52 7.17 6.3 4 4 1013.1 0 16.4 23.0 33.2 86.9 77.6 265.9
16 14:10 15.9 54 7.31 6.6 4 4 1013.1 0 16.8 23.3 33.8 88.6 79.6 272.9
16 14:00 16.3 52 7.21 6.4 2 6 1023 0 16.5 23.4 33.7 88.1 78.7 269.5
16 13:50 16.4 53 7.4 6.8 6 7 1013.1 0 16.9 23.3 34.0 88.9 80.2 275.1
16 13:40 15.8 53 7.13 6.2 2 2 1013.1 0 16.4 23.1 33.2 86.9 77.5 265.6
16 13:30 15.8 56 7.54 7.1 4 6 1023.2 0 17.2 24.0 35.2 92.0 83.3 285.6
16 13:20 15.8 53 7.13 6.2 2 4 1013.1 0 16.4 23.1 33.2 86.9 77.5 265.6
16 13:10 15.6 55 7.31 6.6 2 2 1013.1 0 16.8 23.4 34.0 88.9 79.9 273.9
16 13:00 15.3 54 7.05 6.1 2 7 1023.5 0 16.2 23.4 33.5 87.6 77.7 266.1
16 12:50 14.8 54 6.84 5.6 6 6 1013.1 0 15.8 22.9 32.6 85.1 74.9 256.4
16 12:40 14.6 58 7.26 6.4 4 6 1013.1 0 16.7 23.6 34.2 89.5 80.3 275.2
16 12:30 14.6 62 7.76 7.4 4 7 1023.9 0 17.8 24.7 36.6 95.7 87.4 299.9
16 12:20 14.3 60 7.37 6.8 6 7 1013.1 0 16.9 23.8 34.8 91.0 82.0 281.1
16 12:10 13.9 59 7.07 6 7 7 1013.1 0 16.3 23.5 33.8 88.4 78.6 269.3
16 12:00 13.9 63 7.55 7 4 7 1024.4 0 17.3 24.6 36.1 94.4 85.5 293.2
16 11:50 13.8 64 7.63 7.1 4 4 1013.1 0 17.5 24.3 36.0 94.2 85.8 294.4
16 11:40 13.4 63 7.32 6.5 4 6 1013.1 0 16.9 24.0 35.0 91.5 82.3 282.0
16 11:30 13 63 7.15 6.1 6 9 1024.9 0 16.5 24.2 35.0 91.3 81.4 278.6
16 11:20 12.7 66 7.35 6.5 6 6 1013.1 0 17.0 24.2 35.4 92.6 83.4 285.9
16 11:10 12.7 67 7.46 6.7 4 6 1013.1 0 17.2 24.4 35.8 93.8 84.8 290.8
16 11:00 12.1 69 7.4 6.6 4 6 1025.1 0 17.1 24.9 36.3 95.0 85.6 293.2
16 10:50 11.9 72 7.63 7 4 6 1013.1 0 17.6 24.9 36.8 96.5 87.9 301.5
16 10:40 11.6 74 7.69 7.1 6 6 1013.1 0 17.7 25.0 37.2 97.5 89.0 305.5
16 10:30 11.4 74 7.6 6.9 6 9 1025.4 0 17.6 25.4 37.5 98.0 89.0 305.2
16 10:20 11.1 76 7.66 7 7 9 1013.1 0 17.7 25.1 37.3 97.8 89.2 306.0
16 10:10 10.8 77 7.61 6.9 9 11 1013.1 0 17.6 25.1 37.3 97.7 88.9 304.9
16 10:00 10.3 79 7.57 6.8 9 11 1025.3 0 17.5 25.7 37.9 99.1 89.9 308.0
16 09:50 9.7 80 7.38 6.4 9 9 1013.1 0 17.2 25.1 36.8 96.5 87.1 298.4
16 09:40 9.4 80 7.24 6.1 9 9 1013.1 0 16.9 24.9 36.4 95.4 85.6 293.0

Last Refresh: 17-Jul-2020 02:19:12

Most of the information presented on this site is sourced from the Bureau of Meteorology.  Copyright in all material sourced from the Bureau of Meteorology resides with the Commonwealth of Australia.